Time;durP1;ratioP1;P1;durP2;ratioP2;P2;SDS_P1;SDS_P2;PMS_P1;PMS_P2;Temp;Humidity;BMP_temperature;BMP_pressure;BME280_temperature;BME280_humidity;BME280_pressure;Samples;Min_cycle;Max_cycle;Signal;HPM_P1;HPM_P2
2022/05/26 00:01:05;;;;;;;73.47;65.25;;;;;;;18.75;85.44;100219.97;5108751;28;20448;-28
2022/05/26 00:03:40;;;;;;;70.40;62.92;;;;;;;18.33;87.19;100216.41;5108936;28;20533;-30
2022/05/26 00:06:08;;;;;;;69.43;61.80;;;;;;;18.19;88.75;100210.69;5110370;28;20852;-32
2022/05/26 00:08:34;;;;;;;73.25;65.35;;;;;;;18.08;88.52;100200.94;5108593;28;20513;-30
2022/05/26 00:11:00;;;;;;;77.57;64.78;;;;;;;18.57;86.27;100218.59;5108359;28;20469;-28
2022/05/26 00:13:26;;;;;;;73.60;65.28;;;;;;;18.38;86.09;100197.50;5109947;28;20497;-29
2022/05/26 00:15:52;;;;;;;78.85;70.32;;;;;;;18.35;86.58;100167.53;5110006;28;20529;-33
2022/05/26 00:18:18;;;;;;;78.85;70.55;;;;;;;18.47;87.07;100204.00;5108318;28;20430;-29
2022/05/26 00:20:43;;;;;;;79.05;70.60;;;;;;;18.20;87.93;100189.91;5109894;28;20023;-28
2022/05/26 00:23:10;;;;;;;80.15;71.63;;;;;;;18.50;86.84;100216.16;5091083;28;20024;-30
2022/05/26 00:25:35;;;;;;;84.00;74.90;;;;;;;18.51;86.71;100208.88;5109436;28;20035;-29
2022/05/26 00:28:01;;;;;;;84.35;75.10;;;;;;;18.14;88.04;100190.97;5109899;28;20027;-29
2022/05/26 00:30:27;;;;;;;85.90;76.80;;;;;;;17.95;89.62;100190.66;5109555;28;20031;-29
2022/05/26 00:32:52;;;;;;;88.30;78.60;;;;;;;18.39;87.84;100199.16;5109550;28;20106;-28
2022/05/26 00:35:18;;;;;;;86.63;77.80;;;;;;;18.32;88.03;100195.88;5108961;28;20023;-30
2022/05/26 00:37:43;;;;;;;88.82;79.07;;;;;;;18.40;88.97;100216.94;5109824;28;20090;-28
2022/05/26 00:40:11;;;;;;;87.78;78.28;;;;;;;18.27;88.38;100220.19;5109365;28;20077;-28
2022/05/26 00:42:37;;;;;;;89.40;79.82;;;;;;;18.07;89.29;100215.53;5109843;28;20497;-30
2022/05/26 00:45:04;;;;;;;88.85;79.50;;;;;;;18.04;90.47;100194.44;5109153;28;20116;-32
2022/05/26 00:47:33;;;;;;;87.63;78.30;;;;;;;17.95;90.49;100193.34;5109322;28;20027;-31
2022/05/26 00:50:12;;;;;;;88.68;79.20;;;;;;;17.99;90.70;100203.34;5090782;28;20059;-29
2022/05/26 00:52:59;;;;;;;91.55;81.82;;;;;;;18.24;89.18;100209.91;5108993;28;20041;-29
2022/05/26 00:55:26;;;;;;;90.43;80.50;;;;;;;18.22;89.71;100212.06;5090725;28;20028;-28
2022/05/26 00:58:14;;;;;;;90.82;80.90;;;;;;;18.09;89.59;100223.38;5107702;28;20035;-31
2022/05/26 01:00:39;;;;;;;90.28;80.80;;;;;;;18.13;89.62;100202.88;5090491;28;20024;-28
2022/05/26 01:03:21;;;;;;;91.75;81.55;;;;;;;18.14;89.02;100188.28;5109217;28;20089;-30
2022/05/26 01:05:58;;;;;;;87.55;78.20;;;;;;;18.07;89.53;100194.72;5107719;28;20042;-29
2022/05/26 01:08:33;;;;;;;89.57;79.60;;;;;;;18.07;89.57;100208.22;5109000;28;20027;-33
2022/05/26 01:10:58;;;;;;;89.75;79.10;;;;;;;17.98;88.70;100196.34;5107321;28;20660;-29
2022/05/26 01:13:24;;;;;;;91.22;81.50;;;;;;;18.01;87.72;100203.88;5108392;28;20031;-29
2022/05/26 01:16:02;;;;;;;94.65;84.43;;;;;;;18.20;87.56;100215.00;5108697;28;20031;-28
2022/05/26 01:18:40;;;;;;;92.20;81.82;;;;;;;17.73;90.24;100209.69;5108676;28;20381;-29
2022/05/26 01:21:36;;;;;;;92.10;81.65;;;;;;;17.75;90.37;100219.13;5108236;28;20016;-28
2022/05/26 01:24:05;;;;;;;93.10;81.80;;;;;;;17.97;88.95;100204.69;5108696;28;20035;-29
2022/05/26 01:27:02;;;;;;;88.03;78.38;;;;;;;17.71;91.14;100201.03;5107164;28;20680;-29
2022/05/26 01:29:46;;;;;;;90.55;80.65;;;;;;;17.84;89.10;100208.69;5076070;28;20377;-29
2022/05/26 01:32:33;;;;;;;90.93;80.80;;;;;;;17.77;90.21;100184.63;5108071;28;20122;-30
2022/05/26 01:35:18;;;;;;;90.40;80.82;;;;;;;17.70;92.35;100202.13;5108460;28;20046;-28
2022/05/26 01:38:11;;;;;;;88.20;78.65;;;;;;;17.71;91.50;100206.44;5108204;28;20035;-29
2022/05/26 01:41:25;;;;;;;79.47;70.97;;;;;;;16.87;89.03;100215.06;5108082;28;20054;-29
2022/05/26 01:44:07;;;;;;;80.07;67.82;;;;;;;16.21;89.42;100192.88;5089963;28;20097;-28
2022/05/26 01:46:42;;;;;;;81.13;67.60;;;;;;;16.10;90.38;100183.91;5107966;28;20111;-29
2022/05/26 01:49:07;;;;;;;94.28;69.22;;;;;;;16.43;90.94;100215.19;5089609;28;20085;-29
2022/05/26 01:51:51;;;;;;;92.57;72.50;;;;;;;16.93;90.43;100204.34;5108125;28;20535;-31
2022/05/26 01:54:31;;;;;;;90.80;73.30;;;;;;;16.93;90.58;100201.66;5107816;28;20027;-32
2022/05/26 01:57:21;;;;;;;80.93;71.35;;;;;;;16.83;90.92;100181.63;5108111;28;20151;-30
2022/05/26 01:59:54;;;;;;;115.10;73.68;;;;;;;17.14;90.84;100192.66;5089323;28;20407;-29
2022/05/26 02:02:24;;;;;;;77.43;68.65;;;;;;;16.99;89.62;100195.22;5089207;28;20077;-30
2022/05/26 02:04:57;;;;;;;79.30;70.45;;;;;;;16.51;92.74;100180.78;5089090;28;20028;-30
2022/05/26 02:07:32;;;;;;;80.07;70.50;;;;;;;16.24;93.57;100189.66;5107633;28;20152;-29
2022/05/26 02:10:02;;;;;;;94.13;73.53;;;;;;;15.78;94.09;100181.09;5107805;28;20059;-31
2022/05/26 02:12:43;;;;;;;109.72;74.03;;;;;;;15.81;93.94;100186.81;5107652;28;20080;-31
2022/05/26 02:15:16;;;;;;;149.43;73.47;;;;;;;15.40;95.64;100153.97;5107296;28;20031;-28
2022/05/26 02:17:52;;;;;;;106.32;73.57;;;;;;;15.79;95.75;100188.09;5107419;28;20404;-28
2022/05/26 02:20:35;;;;;;;87.90;67.18;;;;;;;16.06;93.25;100188.97;5106301;28;20101;-33
2022/05/26 02:23:15;;;;;;;89.43;64.35;;;;;;;16.23;92.62;100180.00;5107344;28;20483;-30
2022/05/26 02:25:41;;;;;;;79.82;64.03;;;;;;;16.17;94.39;100168.34;5107543;28;20034;-31
2022/05/26 02:28:06;;;;;;;95.93;62.67;;;;;;;16.23;93.49;100180.00;5107317;28;20024;-29
2022/05/26 02:30:39;;;;;;;69.40;62.08;;;;;;;16.25;92.57;100177.84;5107231;28;20490;-31
2022/05/26 02:33:08;;;;;;;66.28;58.97;;;;;;;16.27;92.88;100175.72;5088729;28;20071;-30
2022/05/26 02:35:38;;;;;;;68.45;61.10;;;;;;;16.54;91.02;100188.38;5105942;28;20062;-31
2022/05/26 02:38:14;;;;;;;66.25;58.08;;;;;;;16.55;90.44;100206.13;5105736;28;20058;-29
2022/05/26 02:40:41;;;;;;;61.42;54.75;;;;;;;16.65;89.80;100209.75;5085410;28;20420;-30
2022/05/26 02:43:13;;;;;;;;;;;;;;;16.76;89.73;100205.25;5086932;28;20052;-28
2022/05/26 02:46:06;;;;;;;62.53;55.75;;;;;;;16.90;88.96;100213.75;5086975;28;19920;-31
2022/05/26 02:49:09;;;;;;;64.82;58.00;;;;;;;16.95;87.96;100205.69;5086869;28;20118;-29
2022/05/26 02:51:44;;;;;;;62.50;55.83;;;;;;;16.88;88.31;100205.13;5087509;28;20035;-31
2022/05/26 02:54:24;;;;;;;61.05;54.45;;;;;;;16.90;87.45;100219.13;5087180;28;20028;-35
2022/05/26 02:56:49;;;;;;;58.78;52.30;;;;;;;16.87;87.98;100209.66;5086689;28;20074;-33
2022/05/26 02:59:42;;;;;;;59.95;53.35;;;;;;;17.07;87.27;100224.38;5085058;28;20059;-30
2022/05/26 03:02:45;;;;;;;60.50;53.90;;;;;;;16.78;87.33;100227.34;5086654;28;20032;-30
2022/05/26 03:05:47;;;;;;;63.13;52.75;;;;;;;16.42;89.99;100221.63;5086521;28;20051;-31
2022/05/26 03:08:19;;;;;;;66.90;52.10;;;;;;;16.38;89.33;100196.28;5053749;28;20078;-29
2022/05/26 03:10:50;;;;;;;63.90;52.95;;;;;;;16.49;91.04;100221.44;5085426;28;20534;-32
2022/05/26 03:13:16;;;;;;;60.25;52.85;;;;;;;16.61;89.84;100221.25;5086448;28;20115;-29
2022/05/26 03:15:42;;;;;;;81.43;53.70;;;;;;;16.53;89.99;100224.41;5068458;28;20020;-29
2022/05/26 03:18:09;;;;;;;58.88;51.60;;;;;;;16.39;91.82;100203.31;5086695;28;20411;-30
2022/05/26 03:20:35;;;;;;;57.53;49.95;;;;;;;16.54;90.58;100226.06;5086749;28;20045;-29
2022/05/26 03:23:01;;;;;;;62.03;48.47;;;;;;;16.20;92.31;100218.16;5086383;28;20040;-29
2022/05/26 03:25:26;;;;;;;59.10;48.13;;;;;;;15.92;93.94;100220.00;5086450;28;20813;-29
2022/05/26 03:27:52;;;;;;;57.70;48.95;;;;;;;15.69;96.70;100204.88;5086733;28;20427;-30
2022/05/26 03:30:18;;;;;;;109.60;50.92;;;;;;;15.88;96.29;100186.59;5088739;28;20074;-29
2022/05/26 03:32:45;;;;;;;57.25;49.67;;;;;;;16.18;94.42;100222.97;5090170;28;20039;-28
2022/05/26 03:40:57;;;;;;;59.53;49.65;;;;;;;15.73;94.25;100199.84;5098762;28;20181;-30
2022/05/26 03:43:29;;;;;;;66.30;53.40;;;;;;;15.99;92.53;100203.66;5109391;28;20097;-33
2022/05/26 03:45:58;;;;;;;88.63;55.92;;;;;;;16.24;89.91;100200.44;5109722;28;20525;-33
2022/05/26 03:48:23;;;;;;;91.15;56.30;;;;;;;16.06;91.27;100226.63;5110209;28;20053;-28
2022/05/26 03:50:49;;;;;;;99.68;54.60;;;;;;;16.00;91.94;100211.50;5110234;28;20961;-28
2022/05/26 03:53:14;;;;;;;69.65;55.70;;;;;;;16.46;91.10;100213.84;5110103;28;20422;-29
2022/05/26 03:55:40;;;;;;;68.88;52.75;;;;;;;16.32;91.02;100205.38;5110109;28;20031;-30
2022/05/26 03:58:06;;;;;;;61.17;48.58;;;;;;;16.52;90.37;100203.97;5109971;28;20031;-29
2022/05/26 04:00:32;;;;;;;57.25;48.92;;;;;;;16.56;91.37;100218.53;5110001;28;20504;-28
2022/05/26 04:02:58;;;;;;;56.47;47.92;;;;;;;16.56;90.71;100218.53;5091741;28;20023;-30
2022/05/26 04:05:23;;;;;;;55.70;45.30;;;;;;;16.69;89.99;100212.72;5109730;28;20030;-29
2022/05/26 04:07:49;;;;;;;53.55;44.15;;;;;;;16.81;90.34;100221.47;5109939;28;20024;-29
2022/05/26 04:10:15;;;;;;;53.30;46.30;;;;;;;16.79;90.09;100215.50;5091332;28;20668;-28
2022/05/26 04:12:44;;;;;;;51.35;44.03;;;;;;;16.85;91.15;100217.19;5109859;28;20036;-30
2022/05/26 04:15:11;;;;;;;53.50;45.47;;;;;;;16.92;90.74;100206.22;5109465;28;20545;-33
2022/05/26 04:17:37;;;;;;;56.80;45.67;;;;;;;17.05;90.17;100204.97;5109728;28;20028;-30
2022/05/26 04:20:03;;;;;;;60.22;45.58;;;;;;;17.42;88.69;100204.13;5109597;28;20039;-30
2022/05/26 04:22:29;;;;;;;56.65;46.88;;;;;;;17.39;88.95;100189.31;5109737;28;20054;-29
2022/05/26 04:24:56;;;;;;;54.63;46.25;;;;;;;17.60;88.35;100206.38;5109381;28;20047;-29
2022/05/26 04:27:26;;;;;;;57.88;46.72;;;;;;;17.61;89.04;100201.78;5108414;28;20459;-29
2022/05/26 04:29:52;;;;;;;63.40;46.67;;;;;;;17.57;90.23;100189.91;5091366;28;20031;-29
2022/05/26 04:32:18;;;;;;;60.13;45.33;;;;;;;17.85;90.63;100207.59;5109586;28;20028;-38
2022/05/26 04:34:48;;;;;;;63.05;45.53;;;;;;;17.72;92.14;100235.03;5109383;28;20028;-29
2022/05/26 04:37:16;;;;;;;70.00;47.05;;;;;;;17.51;93.66;100182.88;5091087;28;20498;-28
2022/05/26 04:39:42;;;;;;;57.50;44.85;;;;;;;17.76;93.75;100209.16;5090323;28;20043;-29
2022/05/26 04:42:08;;;;;;;63.65;44.03;;;;;;;17.93;94.49;100215.19;5090963;28;20118;-29
2022/05/26 04:44:37;;;;;;;64.18;42.85;;;;;;;18.10;94.01;100214.19;5090846;28;20120;-29
2022/05/26 04:47:03;;;;;;;62.67;42.63;;;;;;;18.41;93.33;100237.50;5090538;28;20039;-29
2022/05/26 04:49:30;;;;;;;60.63;43.60;;;;;;;18.43;92.62;100221.84;5090589;28;20039;-29
2022/05/26 04:51:56;;;;;;;62.00;42.50;;;;;;;18.81;90.96;100225.13;5090646;28;20035;-28
2022/05/26 04:54:22;;;;;;;65.22;43.53;;;;;;;19.02;90.49;100241.34;5108963;28;20038;-32
2022/05/26 04:56:48;;;;;;;50.88;40.17;;;;;;;19.25;87.55;100240.81;5109335;28;20189;-33
2022/05/26 04:59:13;;;;;;;57.45;38.70;;;;;;;19.36;86.93;100254.31;5108745;28;20102;-28
2022/05/26 05:01:39;;;;;;;55.47;37.58;;;;;;;19.52;85.95;100255.91;5108811;28;20069;-29
2022/05/26 05:04:04;;;;;;;54.38;36.92;;;;;;;19.74;84.98;100241.28;5108978;28;20031;-29
2022/05/26 05:06:30;;;;;;;58.42;38.60;;;;;;;19.66;85.62;100240.72;5108564;28;20027;-29
2022/05/26 05:08:55;;;;;;;54.88;36.65;;;;;;;19.57;85.96;100226.13;5108594;28;20027;-29
2022/05/26 05:11:21;;;;;;;65.80;44.63;;;;;;;19.89;85.48;100238.50;5108774;28;20042;-29
2022/05/26 05:13:47;;;;;;;67.90;45.00;;;;;;;19.67;86.29;100253.16;5090268;28;20035;-34
2022/05/26 05:16:20;;;;;;;54.85;38.15;;;;;;;19.70;86.57;100251.00;5108692;28;20046;-30
2022/05/26 05:18:46;;;;;;;56.75;38.53;;;;;;;19.61;86.71;100238.00;5107059;28;20074;-35
2022/05/26 05:21:15;;;;;;;58.83;39.35;;;;;;;19.79;85.63;100233.94;5108153;28;20066;-29
2022/05/26 05:23:44;;;;;;;59.28;39.53;;;;;;;19.80;85.84;100242.88;5108206;28;20403;-28
2022/05/26 05:26:14;;;;;;;52.08;35.95;;;;;;;19.90;84.82;100232.03;5089894;28;20031;-32
2022/05/26 05:28:46;;;;;;;50.35;35.88;;;;;;;19.97;84.89;100239.84;5089573;28;20019;-29
2022/05/26 05:31:16;;;;;;;54.55;36.78;;;;;;;20.25;84.00;100255.41;5089683;28;20050;-31
2022/05/26 05:33:47;;;;;;;52.38;35.25;;;;;;;20.40;83.11;100259.94;5106794;28;20031;-30
2022/05/26 05:36:35;;;;;;;53.67;35.50;;;;;;;20.68;82.10;100268.47;5108288;28;20081;-29
2022/05/26 05:39:03;;;;;;;50.30;33.05;;;;;;;20.89;80.80;100249.34;5107308;28;20043;-28
2022/05/26 05:41:29;;;;;;;;;;;;;;;20.93;80.87;100270.19;5106910;28;20039;-34
2022/05/26 05:43:55;;;;;;;51.35;32.97;;;;;;;20.71;81.39;100281.44;5108255;28;19922;-30
2022/05/26 05:46:22;;;;;;;51.33;35.08;;;;;;;20.70;82.24;100279.00;5106687;28;20028;-29
2022/05/26 05:48:48;;;;;;;54.10;36.10;;;;;;;20.75;81.40;100268.94;5108108;28;20038;-37
2022/05/26 05:51:15;;;;;;;50.90;34.17;;;;;;;20.80;81.70;100268.94;5089162;28;20044;-30
2022/05/26 05:53:42;;;;;;;48.80;34.92;;;;;;;20.89;81.16;100261.00;5107563;28;20438;-33
2022/05/26 05:56:08;;;;;;;52.45;34.13;;;;;;;21.41;79.17;100274.91;5107971;28;20035;-31
2022/05/26 05:58:34;;;;;;;51.08;35.08;;;;;;;21.47;79.27;100273.81;5107588;28;20115;-31
2022/05/26 06:01:00;;;;;;;47.85;32.55;;;;;;;21.79;77.88;100278.63;5107585;28;20106;-30
2022/05/26 06:03:31;;;;;;;48.17;32.78;;;;;;;21.73;78.71;100285.22;5107543;28;20453;-28
2022/05/26 06:06:01;;;;;;;48.47;32.38;;;;;;;22.00;76.91;100262.91;5107628;28;20392;-29
2022/05/26 06:08:27;;;;;;;49.22;32.90;;;;;;;22.11;76.55;100289.94;5107510;28;20114;-28
2022/05/26 06:10:53;;;;;;;48.65;33.55;;;;;;;22.38;76.08;100289.38;5107462;28;20032;-31
2022/05/26 06:13:18;;;;;;;47.88;33.53;;;;;;;22.13;76.53;100290.44;5106936;28;20031;-30
2022/05/26 06:15:47;;;;;;;48.88;33.72;;;;;;;21.96;77.07;100277.34;5106060;28;20612;-29
2022/05/26 06:18:13;;;;;;;45.13;31.02;;;;;;;22.12;75.47;100278.78;5107503;28;20042;-29
2022/05/26 06:20:40;;;;;;;43.05;30.77;;;;;;;22.08;75.90;100286.69;5107211;28;20026;-29
2022/05/26 06:23:06;;;;;;;47.58;30.70;;;;;;;21.86;76.15;100281.00;5107204;28;20084;-29
2022/05/26 06:25:31;;;;;;;49.25;32.83;;;;;;;22.20;76.21;100307.22;5107225;28;20020;-29
2022/05/26 06:30:41;;;;;;;48.67;32.90;;;;;;;22.02;75.97;100304.16;5107187;28;20023;-29
2022/05/26 06:38:39;;;;;;;50.72;33.10;;;;;;;22.60;74.42;100280.63;5107566;28;20050;-30
2022/05/26 06:43:52;;;;;;;50.40;32.38;;;;;;;22.83;73.75;100290.59;5107395;28;20084;-29
2022/05/26 06:46:18;;;;;;;48.22;31.50;;;;;;;22.83;73.06;100279.72;5106908;28;20028;-28
2022/05/26 06:48:45;;;;;;;48.03;31.67;;;;;;;22.84;72.74;100275.09;5088335;28;20031;-32
2022/05/26 06:51:11;;;;;;;47.00;31.48;;;;;;;22.91;72.63;100291.06;5106636;28;20024;-31
2022/05/26 06:53:38;;;;;;;44.30;30.00;;;;;;;22.88;73.24;100287.00;5088523;28;20032;-28
2022/05/26 06:56:04;;;;;;;48.78;31.30;;;;;;;22.87;74.03;100280.75;5105361;28;20045;-30
2022/05/26 06:58:31;;;;;;;42.55;30.58;;;;;;;22.94;72.37;100260.53;5088696;28;20074;-29
2022/05/26 07:00:57;;;;;;;44.25;30.55;;;;;;;22.90;73.65;100283.97;5106767;28;20039;-31
2022/05/26 07:03:22;;;;;;;42.15;30.10;;;;;;;22.95;71.72;100286.63;5106367;28;20027;-29
2022/05/26 07:05:50;;;;;;;43.63;29.90;;;;;;;22.86;72.36;100292.75;5109948;28;20457;-32
2022/05/26 07:08:16;;;;;;;44.63;29.67;;;;;;;22.81;73.54;100273.78;5092608;28;20023;-30
2022/05/26 07:10:42;;;;;;;46.20;30.02;;;;;;;22.91;72.68;100270.09;5092110;28;20426;-31
2022/05/26 07:13:07;;;;;;;43.05;29.55;;;;;;;23.26;71.88;100276.88;5109194;28;20020;-30
2022/05/26 07:15:33;;;;;;;41.17;29.70;;;;;;;23.31;71.71;100273.25;5110625;28;20824;-30
2022/05/26 07:17:58;;;;;;;42.13;28.88;;;;;;;23.31;70.83;100284.13;5110468;28;20028;-29
2022/05/26 07:20:24;;;;;;;45.30;31.13;;;;;;;23.50;71.16;100283.28;5110762;28;20023;-30
2022/05/26 07:22:49;;;;;;;40.55;29.65;;;;;;;23.55;69.86;100264.94;5110700;28;20038;-29
2022/05/26 07:25:15;;;;;;;41.05;30.73;;;;;;;23.82;69.83;100276.97;5108680;28;20039;-33
2022/05/26 07:27:42;;;;;;;42.00;28.42;;;;;;;23.72;69.91;100266.25;5110394;28;20475;-31
2022/05/26 07:30:10;;;;;;;40.10;28.15;;;;;;;24.12;68.95;100294.63;5110320;28;20029;-29
2022/05/26 07:32:35;;;;;;;42.83;28.10;;;;;;;24.21;68.83;100294.72;5110232;28;20088;-30
2022/05/26 07:35:02;;;;;;;46.30;26.02;;;;;;;24.27;67.96;100275.25;5110197;28;20039;-29
2022/05/26 07:42:55;;;;;;;39.60;25.63;;;;;;;24.69;67.61;100277.88;5110257;28;20035;-32
2022/05/26 07:45:21;;;;;;;31.98;24.85;;;;;;;25.03;66.19;100287.47;5110064;28;20032;-31
2022/05/26 07:47:47;;;;;;;38.72;25.50;;;;;;;25.04;64.42;100295.31;5110127;28;20028;-30
2022/05/26 07:50:20;;;;;;;38.80;25.08;;;;;;;24.96;64.63;100298.00;5110105;28;20092;-31
2022/05/26 07:52:48;;;;;;;37.15;25.80;;;;;;;24.86;65.25;100278.00;5108647;28;20117;-29
2022/05/26 07:55:14;;;;;;;36.22;24.92;;;;;;;25.00;65.41;100309.91;5091181;28;20036;-30
2022/05/26 07:57:39;;;;;;;35.10;25.10;;;;;;;25.17;66.26;100301.03;5091443;28;20036;-28
2022/05/26 08:00:06;;;;;;;34.33;23.77;;;;;;;25.59;63.51;100277.03;5110394;28;20066;-29
2022/05/26 08:02:31;;;;;;;35.03;24.23;;;;;;;25.91;62.92;100294.22;5109825;28;20491;-29
2022/05/26 08:04:57;;;;;;;31.92;22.92;;;;;;;26.10;63.00;100286.56;5109769;28;20042;-30
2022/05/26 08:07:23;;;;;;;31.65;21.33;;;;;;;26.33;61.92;100295.44;5109758;28;20210;-34
2022/05/26 08:09:49;;;;;;;30.85;21.48;;;;;;;26.62;61.10;100281.22;5108031;28;20469;-35
2022/05/26 08:12:15;;;;;;;31.50;20.88;;;;;;;26.71;58.53;100273.00;5109907;28;20028;-33
2022/05/26 08:14:42;;;;;;;27.58;20.70;;;;;;;27.00;59.58;100299.69;5109318;28;20039;-31
2022/05/26 08:17:08;;;;;;;30.45;20.90;;;;;;;27.18;58.71;100297.75;5109569;28;20027;-29
2022/05/26 08:19:34;;;;;;;24.52;17.02;;;;;;;27.14;56.76;100293.25;5109681;28;20068;-29
2022/05/26 08:21:59;;;;;;;27.50;17.60;;;;;;;27.24;56.19;100299.19;5109737;28;20058;-29
2022/05/26 08:24:26;;;;;;;28.40;18.70;;;;;;;27.35;54.89;100280.50;5109544;28;20754;-29
2022/05/26 08:26:52;;;;;;;25.42;16.88;;;;;;;27.65;56.21;100306.00;5107629;28;20031;-30
2022/05/26 08:29:18;;;;;;;30.67;19.08;;;;;;;27.64;56.06;100298.94;5107893;28;20057;-30
2022/05/26 08:31:44;;;;;;;28.65;18.85;;;;;;;27.81;55.36;100302.75;5109436;28;20034;-29
2022/05/26 08:34:09;;;;;;;25.67;17.85;;;;;;;28.04;55.77;100295.88;5109829;28;20107;-30
2022/05/26 08:36:35;;;;;;;23.67;17.75;;;;;;;28.04;54.67;100284.91;5107813;28;20407;-30
2022/05/26 08:39:02;;;;;;;29.20;18.33;;;;;;;28.12;55.39;100296.97;5108940;28;20036;-31
2022/05/26 08:41:32;;;;;;;26.05;17.40;;;;;;;28.28;53.91;100299.09;5090829;28;20075;-29
2022/05/26 08:44:03;;;;;;;27.20;18.00;;;;;;;28.56;53.38;100297.47;5109230;28;20027;-34
2022/05/26 08:46:38;;;;;;;24.65;16.58;;;;;;;28.26;54.68;100296.72;5090633;28;20087;-31
2022/05/26 08:49:06;;;;;;;25.08;14.45;;;;;;;28.62;51.87;100295.34;5108890;28;20023;-34
2022/05/26 08:51:56;;;;;;;23.92;14.90;;;;;;;28.76;52.09;100293.13;5107567;28;20314;-31
2022/05/26 08:54:35;;;;;;;21.77;14.93;;;;;;;28.99;51.19;100295.50;5109203;28;20024;-32
2022/05/26 08:57:02;;;;;;;23.13;14.38;;;;;;;29.40;51.43;100278.16;5108670;28;20421;-29
2022/05/26 08:59:40;;;;;;;23.33;14.10;;;;;;;29.82;49.99;100299.19;5090500;28;20183;-32
2022/05/26 09:02:32;;;;;;;18.40;13.18;;;;;;;29.93;48.22;100297.56;5108618;28;20037;-32
2022/05/26 09:05:01;;;;;;;17.50;11.38;;;;;;;30.00;48.26;100297.78;5108871;28;20023;-30
2022/05/26 09:13:12;;;;;;;19.67;11.80;;;;;;;30.80;45.14;100298.22;5108466;28;20096;-32
2022/05/26 09:15:38;;;;;;;17.48;9.95;;;;;;;31.06;42.89;100280.47;5108570;28;20491;-33
2022/05/26 09:18:16;;;;;;;18.05;7.72;;;;;;;30.85;40.05;100297.97;5089873;28;20063;-30
2022/05/26 09:20:44;;;;;;;18.15;8.43;;;;;;;30.76;38.13;100287.09;5106473;28;20027;-30
2022/05/26 09:23:11;;;;;;;14.90;8.15;;;;;;;31.07;37.91;100302.16;5106935;28;20848;-29
2022/05/26 09:25:49;;;;;;;13.95;8.65;;;;;;;31.51;38.63;100279.31;5108069;28;20057;-29
2022/05/26 09:28:40;;;;;;;14.20;7.55;;;;;;;31.04;37.86;100289.88;5088987;28;20491;-30
2022/05/26 09:31:31;;;;;;;16.88;8.50;;;;;;;31.21;37.85;100299.78;5107698;28;20028;-31
2022/05/26 09:34:19;;;;;;;15.40;8.23;;;;;;;31.01;38.55;100293.34;5089805;28;20060;-30
2022/05/26 09:36:53;;;;;;;14.75;8.00;;;;;;;31.28;37.11;100287.34;5108229;28;20035;-29
2022/05/26 09:39:25;;;;;;;13.85;7.90;;;;;;;31.16;36.95;100279.94;5107763;28;20035;-32
2022/05/26 09:41:58;;;;;;;15.23;8.02;;;;;;;30.98;37.91;100285.78;5107950;28;20155;-29
2022/05/26 09:44:34;;;;;;;16.15;8.45;;;;;;;30.89;37.71;100289.84;5089818;28;20035;-33
2022/05/26 09:47:18;;;;;;;14.40;7.95;;;;;;;31.38;37.80;100289.56;5108065;28;20031;-31
2022/05/26 09:49:49;;;;;;;12.13;6.95;;;;;;;31.20;35.34;100295.44;5108119;28;20440;-28
2022/05/26 09:52:18;;;;;;;14.13;7.55;;;;;;;31.23;36.78;100299.44;5107878;28;20092;-29
2022/05/26 09:54:45;;;;;;;16.95;9.20;;;;;;;31.17;35.91;100290.63;5089725;28;20446;-28
2022/05/26 09:57:14;;;;;;;15.15;7.88;;;;;;;31.21;37.15;100298.97;5089237;28;20100;-32
2022/05/26 09:59:40;;;;;;;15.25;6.90;;;;;;;31.17;36.87;100290.63;5089136;28;20036;-30
2022/05/26 10:02:33;;;;;;;17.20;7.67;;;;;;;31.56;35.93;100295.56;5106288;28;20038;-29
2022/05/26 10:05:10;;;;;;;13.90;7.25;;;;;;;31.61;35.58;100292.56;5107767;28;20301;-38
2022/05/26 10:07:39;;;;;;;14.00;7.80;;;;;;;32.19;35.19;100294.72;5107614;28;20023;-33
2022/05/26 10:10:22;;;;;;;16.00;7.93;;;;;;;32.62;33.56;100296.47;5106027;28;20032;-29
2022/05/26 10:13:12;;;;;;;13.48;7.43;;;;;;;32.86;33.07;100291.03;5107360;28;20034;-32
2022/05/26 10:15:44;;;;;;;11.55;5.80;;;;;;;32.52;31.54;100294.25;5108012;28;20114;-29
2022/05/26 10:18:37;;;;;;;12.85;5.93;;;;;;;32.37;32.69;100279.38;5106139;28;20560;-30
2022/05/26 10:21:19;;;;;;;10.82;5.63;;;;;;;32.40;30.44;100289.66;5105623;28;20037;-31
2022/05/26 10:24:15;;;;;;;14.60;6.45;;;;;;;32.12;30.12;100292.63;5107630;28;20024;-30
2022/05/26 10:26:52;;;;;;;12.57;6.72;;;;;;;32.39;29.41;100285.31;5088943;28;20027;-29
2022/05/26 10:29:36;;;;;;;16.05;7.32;;;;;;;32.66;31.02;100268.94;5107104;28;20034;-31
2022/05/26 10:32:05;;;;;;;12.70;6.45;;;;;;;33.31;30.15;100281.25;5106159;28;20034;-29
2022/05/26 10:34:50;;;;;;;9.57;5.55;;;;;;;33.53;31.20;100280.44;5105860;28;20088;-29
2022/05/26 10:37:38;;;;;;;13.10;6.38;;;;;;;33.37;30.71;100279.78;5105779;28;20479;-29
2022/05/26 10:40:35;;;;;;;14.05;6.18;;;;;;;33.36;31.78;100278.94;5088300;28;20098;-29
2022/05/26 10:43:21;;;;;;;17.90;7.47;;;;;;;33.92;29.99;100272.00;5088613;28;20885;-30
2022/05/26 10:45:48;;;;;;;15.93;6.60;;;;;;;34.10;29.47;100265.91;5105540;28;20040;-32
2022/05/26 10:48:20;;;;;;;13.32;6.45;;;;;;;33.94;30.12;100266.88;5088338;28;20031;-30
2022/05/26 10:51:00;;;;;;;14.77;7.05;;;;;;;33.46;30.42;100260.16;5105645;28;20028;-31
2022/05/26 10:53:40;;;;;;;14.15;5.97;;;;;;;32.97;30.08;100261.66;5088666;28;20036;-29
2022/05/26 10:56:22;;;;;;;10.93;5.93;;;;;;;32.72;31.51;100245.41;5107251;28;20055;-32
2022/05/26 10:59:00;;;;;;;15.48;5.95;;;;;;;32.99;30.10;100237.22;5088414;28;20051;-31
2022/05/26 11:01:40;;;;;;;20.20;6.95;;;;;;;32.94;30.26;100234.78;5088652;28;20036;-31
2022/05/26 11:04:21;;;;;;;15.55;5.65;;;;;;;33.36;29.44;100239.47;5088877;28;20051;-30
2022/05/26 11:06:48;;;;;;;16.50;6.97;;;;;;;34.16;29.21;100237.56;5107183;28;20035;-33
2022/05/26 11:09:42;;;;;;;13.02;6.35;;;;;;;34.55;28.66;100236.44;5088101;28;20038;-30
2022/05/26 11:12:15;;;;;;;10.32;5.95;;;;;;;35.31;30.27;100238.03;5107179;28;20054;-29
2022/05/26 11:18:18;;;;;;;13.65;5.45;;;;;;;35.21;26.71;100232.03;5106710;28;20042;-29
2022/05/26 11:20:57;;;;;;;11.07;5.90;;;;;;;35.62;27.26;100211.75;5023469;28;20029;-30
2022/05/26 11:23:27;;;;;;;14.35;5.95;;;;;;;35.60;27.60;100212.13;5096511;28;20046;-32
2022/05/26 11:25:52;;;;;;;14.80;6.55;;;;;;;35.85;25.75;100222.63;5106393;28;20028;-34
2022/05/26 11:28:23;;;;;;;13.45;5.90;;;;;;;35.83;24.97;100213.88;5105322;28;20031;-30
2022/05/26 11:37:03;;;;;;;27.33;14.50;;;;;;;35.93;24.27;100217.91;5106601;28;20047;-31
2022/05/26 11:39:35;;;;;;;11.80;5.75;;;;;;;35.30;25.19;100212.31;5106636;28;20507;-29
2022/05/26 11:42:03;;;;;;;16.50;5.07;;;;;;;35.47;25.12;100201.72;5106559;28;20046;-31
2022/05/26 11:44:30;;;;;;;8.25;4.93;;;;;;;36.08;23.47;100202.13;5104904;28;20031;-29
2022/05/26 11:47:31;;;;;;;12.40;4.50;;;;;;;36.32;23.94;100201.47;5105118;28;20123;-29
2022/05/26 11:49:56;;;;;;;11.13;4.78;;;;;;;36.33;23.83;100200.28;5064698;28;20069;-36
2022/05/26 11:52:27;;;;;;;10.25;4.20;;;;;;;36.25;22.75;100206.19;5110100;28;20040;-31
2022/05/26 11:54:52;;;;;;;11.15;4.18;;;;;;;36.24;22.94;100202.63;5109986;28;20127;-31
2022/05/26 11:57:33;;;;;;;11.23;4.78;;;;;;;36.28;23.27;100189.53;5109698;28;20480;-34
2022/05/26 12:00:34;;;;;;;13.65;5.05;;;;;;;36.97;22.65;100202.44;5108684;28;20041;-32
2022/05/26 12:03:29;;;;;;;10.95;4.88;;;;;;;36.73;22.41;100195.63;5091778;28;20116;-30
2022/05/26 12:06:11;;;;;;;10.48;4.20;;;;;;;36.60;24.39;100180.53;5088404;28;20427;-30
2022/05/26 12:08:51;;;;;;;14.98;5.00;;;;;;;36.56;22.85;100188.06;5108418;28;20031;-34
2022/05/26 12:11:19;;;;;;;11.82;4.47;;;;;;;35.94;24.66;100186.19;5109534;28;20032;-31